Time;durP1;ratioP1;P1;durP2;ratioP2;P2;SDS_P1;SDS_P2;PMS_P1;PMS_P2;Temp;Humidity;BMP_temperature;BMP_pressure;BME280_temperature;BME280_humidity;BME280_pressure;Samples;Min_cycle;Max_cycle;Signal;HPM_P1;HPM_P2
2021/01/29 00:03:22;;;;;;;11.87;3.30;;;;;9.70;99401.00;;;;10466053;28;20204;-79
2021/01/29 00:08:25;;;;;;;12.63;2.57;;;;;9.70;99394.00;;;;10466784;28;20629;-79
2021/01/29 00:13:27;;;;;;;13.13;2.73;;;;;9.70;99374.00;;;;10483168;28;20209;-80
2021/01/29 00:18:29;;;;;;;10.27;2.43;;;;;9.70;99361.00;;;;10467626;28;20186;-80
2021/01/29 00:23:31;;;;;;;11.47;2.73;;;;;9.70;99343.00;;;;10465327;28;20220;-80
2021/01/29 00:28:32;;;;;;;8.10;2.93;;;;;9.70;99332.00;;;;10449229;28;20193;-80
2021/01/29 00:33:33;;;;;;;7.93;3.97;;;;;9.70;99318.00;;;;10466278;28;20270;-79
2021/01/29 00:38:35;;;;;;;7.50;2.87;;;;;9.80;99293.00;;;;10448562;28;20255;-79
2021/01/29 00:43:36;;;;;;;7.97;2.80;;;;;9.80;99287.00;;;;10450496;28;20620;-79
2021/01/29 00:48:37;;;;;;;5.70;2.70;;;;;9.80;99271.00;;;;10450211;28;20212;-79
2021/01/29 00:53:39;;;;;;;12.07;2.97;;;;;9.80;99261.00;;;;10466918;28;20219;-79
2021/01/29 00:58:48;;;;;;;4.50;2.30;;;;;9.90;99247.00;;;;10523921;28;20207;-79
2021/01/29 01:04:08;;;;;;;9.43;3.03;;;;;9.90;99237.00;;;;10506072;28;20927;-79
2021/01/29 01:09:09;;;;;;;8.37;2.30;;;;;9.90;99230.00;;;;10449417;28;20189;-78
2021/01/29 01:14:16;;;;;;;5.60;2.50;;;;;10.00;99214.00;;;;10450729;28;20622;-77
2021/01/29 01:19:17;;;;;;;3.43;2.30;;;;;10.00;99212.00;;;;10484994;28;20228;-78
2021/01/29 01:24:28;;;;;;;4.17;1.73;;;;;10.00;99200.00;;;;10445260;28;20668;-78
2021/01/29 01:29:31;;;;;;;5.63;2.20;;;;;10.00;99187.00;;;;10475306;28;20206;-78
2021/01/29 01:34:33;;;;;;;2.27;1.77;;;;;10.00;99163.00;;;;10476028;28;20212;-79
2021/01/29 01:39:44;;;;;;;2.67;1.57;;;;;10.10;99148.00;;;;10456328;28;20660;-80
2021/01/29 01:44:46;;;;;;;7.53;2.47;;;;;10.10;99136.00;;;;10492213;28;20209;-80
2021/01/29 01:49:57;;;;;;;1.90;1.60;;;;;10.10;99111.00;;;;10460066;28;20190;-80
2021/01/29 01:55:18;;;;;;;3.77;1.47;;;;;10.10;99100.00;;;;10475539;28;20221;-79
2021/01/29 02:00:31;;;;;;;2.20;1.30;;;;;10.10;99085.00;;;;10474460;28;20182;-80
2021/01/29 02:05:58;;;;;;;2.00;1.43;;;;;10.10;99081.00;;;;10436664;28;20260;-79
2021/01/29 02:11:17;;;;;;;2.50;1.20;;;;;10.10;99069.00;;;;10437900;28;20204;-79
2021/01/29 02:17:02;;;;;;;3.90;1.17;;;;;10.10;99066.00;;;;10378754;28;20198;-78
2021/01/29 02:22:39;;;;;;;0.87;0.60;;;;;10.00;99039.00;;;;10464548;28;20191;-78
2021/01/29 02:28:13;;;;;;;1.43;0.63;;;;;9.90;99028.00;;;;10469878;28;20193;-79
2021/01/29 02:34:05;;;;;;;1.67;0.90;;;;;9.80;99017.00;;;;10489059;28;20323;-79
2021/01/29 02:39:38;;;;;;;1.97;1.30;;;;;9.90;98994.00;;;;10432672;28;20194;-79
2021/01/29 02:45:35;;;;;;;1.30;1.20;;;;;9.90;98974.00;;;;10471473;28;20545;-78
2021/01/29 02:51:06;;;;;;;2.03;1.10;;;;;10.00;98956.00;;;;10409732;28;20213;-79
2021/01/29 02:57:06;;;;;;;1.93;1.10;;;;;10.00;98942.00;;;;10410364;28;20198;-80
2021/01/29 03:02:30;;;;;;;3.67;0.97;;;;;10.00;98933.00;;;;10464652;28;20198;-79
2021/01/29 03:08:04;;;;;;;2.13;1.10;;;;;10.00;98909.00;;;;10462397;28;20217;-79
2021/01/29 03:13:46;;;;;;;1.80;0.80;;;;;10.00;98906.00;;;;10470302;28;20296;-79
2021/01/29 03:19:14;;;;;;;1.10;1.00;;;;;10.10;98896.00;;;;10505646;28;20664;-80
2021/01/29 03:24:44;;;;;;;1.20;1.10;;;;;10.10;98893.00;;;;10504565;28;20204;-80
2021/01/29 03:30:12;;;;;;;2.03;1.00;;;;;10.10;98893.00;;;;10472060;28;20197;-80
2021/01/29 03:35:40;;;;;;;1.53;0.70;;;;;10.10;98898.00;;;;10405452;28;20535;-80
2021/01/29 03:41:20;;;;;;;1.97;0.70;;;;;10.00;98892.00;;;;10414758;28;20186;-80
2021/01/29 03:47:02;;;;;;;0.97;0.73;;;;;10.00;98896.00;;;;10470030;28;20213;-79
2021/01/29 03:52:35;;;;;;;3.37;0.80;;;;;9.90;98905.00;;;;10472641;28;20286;-79
2021/01/29 03:58:24;;;;;;;1.63;0.80;;;;;9.90;98904.00;;;;10489348;28;20190;-79
2021/01/29 04:03:57;;;;;;;2.60;0.97;;;;;9.90;98918.00;;;;10470703;28;20204;-78
2021/01/29 04:09:42;;;;;;;1.93;0.80;;;;;9.90;98917.00;;;;10486600;28;20716;-80
2021/01/29 04:15:14;;;;;;;1.97;1.20;;;;;9.90;98916.00;;;;10428120;28;20205;-79
2021/01/29 04:20:43;;;;;;;1.20;1.10;;;;;10.00;98915.00;;;;10428502;28;20255;-79
2021/01/29 04:25:51;;;;;;;2.43;1.70;;;;;10.00;98923.00;;;;10454460;28;20182;-79
2021/01/29 04:30:55;;;;;;;6.10;1.83;;;;;10.00;98929.00;;;;10484945;28;20255;-80
2021/01/29 04:36:02;;;;;;;2.80;1.60;;;;;10.00;98928.00;;;;10467939;28;20623;-79
2021/01/29 04:41:28;;;;;;;5.57;1.83;;;;;10.00;98941.00;;;;10467198;28;20625;-79
2021/01/29 04:46:49;;;;;;;3.90;1.93;;;;;9.90;98941.00;;;;10483413;28;20308;-80
2021/01/29 04:52:22;;;;;;;4.07;1.63;;;;;9.90;98939.00;;;;10466623;28;20207;-79
2021/01/29 04:57:35;;;;;;;7.20;2.23;;;;;9.90;98956.00;;;;10467074;28;20194;-80
2021/01/29 05:02:45;;;;;;;4.17;1.83;;;;;9.80;98968.00;;;;10483877;28;20198;-80
2021/01/29 05:08:33;;;;;;;5.60;1.90;;;;;9.80;98972.00;;;;10456951;28;20209;-80
2021/01/29 05:14:02;;;;;;;9.93;1.70;;;;;9.60;98983.00;;;;10495882;28;20213;-79
2021/01/29 05:19:45;;;;;;;10.40;2.17;;;;;9.40;98981.00;;;;10483035;28;20607;-79
2021/01/29 05:25:11;;;;;;;7.83;2.50;;;;;9.30;98986.00;;;;10430327;28;20256;-79
2021/01/29 05:30:31;;;;;;;12.27;3.57;;;;;9.30;98992.00;;;;10500113;28;20216;-79
2021/01/29 05:35:45;;;;;;;13.47;2.83;;;;;9.30;99009.00;;;;10465670;28;20213;-79
2021/01/29 05:41:02;;;;;;;18.47;3.63;;;;;9.20;99008.00;;;;10481941;28;20216;-79
2021/01/29 05:46:03;;;;;;;25.73;4.33;;;;;9.20;99008.00;;;;10467408;28;20213;-80
2021/01/29 05:51:27;;;;;;;18.20;3.60;;;;;9.30;99014.00;;;;10466010;28;20212;-80
2021/01/29 05:56:59;;;;;;;17.77;3.47;;;;;9.30;99012.00;;;;10483629;28;20227;-80
2021/01/29 06:02:08;;;;;;;15.77;3.60;;;;;9.30;99020.00;;;;10467043;28;20182;-80
2021/01/29 06:07:45;;;;;;;18.70;3.00;;;;;9.40;99003.00;;;;10487679;28;20270;-80
2021/01/29 06:13:26;;;;;;;16.03;3.13;;;;;9.50;99018.00;;;;10447483;28;20206;-80
2021/01/29 06:19:08;;;;;;;17.77;3.87;;;;;9.50;99021.00;;;;10458474;28;20190;-80
2021/01/29 06:24:54;;;;;;;17.20;4.43;;;;;9.30;99027.00;;;;10330862;28;20294;-80
2021/01/29 06:30:23;;;;;;;21.20;3.50;;;;;9.30;99032.00;;;;10448094;28;20200;-80
2021/01/29 06:35:44;;;;;;;14.57;3.70;;;;;9.20;99037.00;;;;10504456;28;20217;-79
2021/01/29 06:41:03;;;;;;;21.13;5.30;;;;;9.20;99053.00;;;;10489005;28;20224;-80
2021/01/29 06:46:29;;;;;;;20.43;4.27;;;;;9.30;99020.00;;;;10454704;28;20271;-80
2021/01/29 06:51:57;;;;;;;21.83;3.87;;;;;9.30;99067.00;;;;10454742;28;20229;-81
2021/01/29 06:57:20;;;;;;;26.17;6.70;;;;;9.30;99080.00;;;;10488148;28;20198;-78
2021/01/29 07:02:50;;;;;;;17.70;3.77;;;;;9.30;99086.00;;;;10488885;28;20652;-80
2021/01/29 07:07:51;;;;;;;21.73;5.50;;;;;9.30;99104.00;;;;10488661;28;20208;-80
2021/01/29 07:13:05;;;;;;;28.47;6.40;;;;;9.20;99104.00;;;;10454161;28;20209;-79
2021/01/29 07:18:16;;;;;;;25.80;5.03;;;;;9.10;99118.00;;;;10487124;28;20219;-79
2021/01/29 07:23:37;;;;;;;10.87;4.87;;;;;9.20;99117.00;;;;10504312;28;20551;-80
2021/01/29 07:28:44;;;;;;;20.60;4.90;;;;;9.20;99135.00;;;;10503014;28;20230;-80
2021/01/29 07:34:28;;;;;;;29.57;5.73;;;;;9.20;99145.00;;;;10503188;28;20214;-79
2021/01/29 07:39:41;;;;;;;25.87;6.20;;;;;9.20;99171.00;;;;10425503;28;20223;-79
2021/01/29 07:45:10;;;;;;;23.87;5.40;;;;;9.10;99172.00;;;;10454111;28;20259;-80
2021/01/29 07:50:19;;;;;;;26.87;5.17;;;;;9.00;99168.00;;;;10506586;28;20186;-80
2021/01/29 07:55:22;;;;;;;31.63;5.37;;;;;9.10;99169.00;;;;10453770;28;20216;-80
2021/01/29 08:00:36;;;;;;;30.73;4.83;;;;;9.20;99188.00;;;;10452872;28;20189;-80
2021/01/29 08:06:18;;;;;;;23.07;4.93;;;;;9.30;99185.00;;;;10485057;28;20243;-79
2021/01/29 08:11:20;;;;;;;28.20;4.87;;;;;9.40;99191.00;;;;10448585;28;20209;-80
2021/01/29 08:16:55;;;;;;;29.23;6.47;;;;;9.50;99204.00;;;;10469797;28;20194;-81
2021/01/29 08:22:36;;;;;;;25.83;5.27;;;;;9.60;99205.00;;;;10469790;28;20189;-81
2021/01/29 08:27:53;;;;;;;34.23;6.13;;;;;9.80;99194.00;;;;10480776;28;20255;-81
2021/01/29 08:33:53;;;;;;;22.23;5.57;;;;;10.00;99195.00;;;;10482389;28;20236;-80
2021/01/29 08:39:02;;;;;;;33.13;6.30;;;;;10.00;99206.00;;;;10482185;28;20262;-80
2021/01/29 08:44:25;;;;;;;31.60;5.67;;;;;9.90;99207.00;;;;10503763;28;20320;-80
2021/01/29 08:49:54;;;;;;;32.10;6.17;;;;;10.00;99200.00;;;;10453545;28;20521;-80
2021/01/29 08:55:10;;;;;;;30.97;6.03;;;;;10.10;99201.00;;;;10504984;28;20197;-80
2021/01/29 09:00:34;;;;;;;30.73;5.23;;;;;10.30;99196.00;;;;10449938;28;20591;-82
2021/01/29 09:05:41;;;;;;;27.70;5.90;;;;;10.20;99191.00;;;;10440646;28;20247;-80
2021/01/29 09:11:09;;;;;;;27.13;5.50;;;;;10.20;99195.00;;;;10452103;28;20652;-79
2021/01/29 09:16:21;;;;;;;25.20;5.73;;;;;10.30;99207.00;;;;10452079;28;20259;-79
2021/01/29 09:21:28;;;;;;;29.80;6.67;;;;;10.30;99205.00;;;;10452001;28;20285;-80
2021/01/29 09:26:44;;;;;;;25.03;5.47;;;;;10.40;99208.00;;;;10467953;28;20223;-80
2021/01/29 09:31:57;;;;;;;27.67;5.70;;;;;10.80;99209.00;;;;10469936;28;20209;-81
2021/01/29 09:37:05;;;;;;;21.33;4.30;;;;;11.40;99207.00;;;;10443933;28;20198;-80
2021/01/29 09:42:39;;;;;;;21.07;5.40;;;;;11.60;99216.00;;;;10451355;28;20185;-82
2021/01/29 09:47:44;;;;;;;23.47;4.83;;;;;11.70;99227.00;;;;10492718;28;20234;-82
2021/01/29 09:52:58;;;;;;;20.10;4.10;;;;;11.90;99225.00;;;;10482928;28;20281;-80
2021/01/29 09:58:41;;;;;;;20.50;4.40;;;;;11.70;99245.00;;;;10453643;28;20204;-80
2021/01/29 10:04:07;;;;;;;25.50;5.20;;;;;11.50;99236.00;;;;10464938;28;20773;-79
2021/01/29 10:09:13;;;;;;;22.47;5.80;;;;;11.80;99236.00;;;;10497020;28;20197;-79
2021/01/29 10:14:38;;;;;;;23.80;4.70;;;;;12.00;99235.00;;;;10471514;28;20210;-80
2021/01/29 10:19:42;;;;;;;23.17;5.63;;;;;11.80;99229.00;;;;10474505;28;20656;-79
2021/01/29 10:25:02;;;;;;;21.27;4.73;;;;;11.90;99234.00;;;;10472714;28;20692;-80
2021/01/29 10:30:12;;;;;;;37.87;15.03;;;;;11.80;99238.00;;;;10459098;28;20193;-79
2021/01/29 10:35:31;;;;;;;21.33;5.30;;;;;11.50;99239.00;;;;10488418;28;20233;-81
2021/01/29 10:40:36;;;;;;;23.90;5.83;;;;;11.20;99254.00;;;;10466610;28;20301;-80
2021/01/29 10:45:47;;;;;;;32.37;7.57;;;;;11.40;99250.00;;;;10454347;28;20209;-79
2021/01/29 10:50:59;;;;;;;32.67;6.23;;;;;11.60;99239.00;;;;10487764;28;20201;-82
2021/01/29 10:56:18;;;;;;;23.53;5.57;;;;;11.60;99245.00;;;;10438785;28;20308;-82
2021/01/29 11:01:32;;;;;;;23.93;6.67;;;;;12.40;99238.00;;;;10457601;28;20774;-81
2021/01/29 11:06:41;;;;;;;22.97;7.27;;;;;12.80;99235.00;;;;10475593;28;20206;-80
2021/01/29 11:11:52;;;;;;;28.53;6.43;;;;;12.90;99236.00;;;;10440905;28;20205;-81
2021/01/29 11:17:16;;;;;;;25.30;6.10;;;;;12.60;99235.00;;;;10456600;28;20203;-82
2021/01/29 11:22:36;;;;;;;34.43;5.40;;;;;12.10;99241.00;;;;10486670;28;20193;-82
2021/01/29 11:27:46;;;;;;;27.43;6.50;;;;;11.60;99228.00;;;;10458014;28;20199;-81
2021/01/29 11:33:00;;;;;;;28.93;5.47;;;;;12.10;99235.00;;;;10471275;28;20233;-80
2021/01/29 11:38:25;;;;;;;17.17;4.77;;;;;13.10;99221.00;;;;10502272;28;20207;-80
2021/01/29 11:44:02;;;;;;;20.03;4.20;;;;;12.80;99227.00;;;;10505038;28;20201;-80
2021/01/29 11:49:20;;;;;;;26.03;5.40;;;;;12.00;99216.00;;;;10504364;28;20198;-79
2021/01/29 11:54:35;;;;;;;22.03;5.30;;;;;10.90;99218.00;;;;10467118;28;20205;-79
2021/01/29 11:59:58;;;;;;;23.93;5.07;;;;;10.20;99201.00;;;;10449947;28;20583;-78
2021/01/29 12:05:17;;;;;;;20.37;4.03;;;;;10.20;99215.00;;;;10473758;28;20201;-78
2021/01/29 12:10:53;;;;;;;15.73;3.30;;;;;10.30;99212.00;;;;10466387;28;20213;-79
2021/01/29 12:15:59;;;;;;;17.60;3.83;;;;;10.50;99189.00;;;;10484866;28;20202;-80
2021/01/29 12:21:23;;;;;;;20.63;3.67;;;;;10.50;99199.00;;;;10474418;28;20185;-81
2021/01/29 12:26:53;;;;;;;14.03;3.83;;;;;11.90;99195.00;;;;10460118;28;20657;-81
2021/01/29 12:32:16;;;;;;;19.87;4.80;;;;;11.50;99188.00;;;;10482565;28;20244;-81
2021/01/29 12:37:46;;;;;;;26.13;4.67;;;;;11.90;99184.00;;;;10467004;28;20193;-80
2021/01/29 12:42:59;;;;;;;20.60;4.83;;;;;11.80;99180.00;;;;10455673;28;20297;-80
2021/01/29 12:48:17;;;;;;;17.70;3.23;;;;;10.90;99184.00;;;;10484081;28;20239;-81
2021/01/29 12:53:33;;;;;;;16.03;3.53;;;;;10.30;99192.00;;;;10450910;28;20296;-80
2021/01/29 12:58:47;;;;;;;15.53;3.40;;;;;9.70;99193.00;;;;10465818;28;20200;-79
2021/01/29 13:04:05;;;;;;;11.63;2.97;;;;;9.30;99214.00;;;;10443550;28;20201;-79
2021/01/29 13:09:06;;;;;;;23.97;4.63;;;;;9.30;99207.00;;;;10466759;28;20224;-79
2021/01/29 13:14:30;;;;;;;14.17;3.53;;;;;9.50;99194.00;;;;10459918;28;20244;-78
2021/01/29 13:19:36;;;;;;;12.23;3.07;;;;;9.70;99184.00;;;;10467577;28;20251;-79
2021/01/29 13:24:38;;;;;;;12.10;3.20;;;;;10.80;99165.00;;;;10419265;28;20190;-79
2021/01/29 13:29:39;;;;;;;16.17;4.23;;;;;11.50;99165.00;;;;10460691;28;20190;-76
2021/01/29 13:34:43;;;;;;;11.27;3.20;;;;;11.70;99154.00;;;;10451608;28;20210;-76
2021/01/29 13:39:45;;;;;;;18.90;3.90;;;;;10.80;99160.00;;;;10471231;28;20193;-76
2021/01/29 13:44:53;;;;;;;16.40;3.33;;;;;10.40;99163.00;;;;10455580;28;20319;-76
2021/01/29 13:49:56;;;;;;;11.50;2.67;;;;;10.70;99158.00;;;;10454876;28;20220;-78
2021/01/29 13:55:26;;;;;;;10.40;3.10;;;;;11.30;99158.00;;;;10468630;28;20210;-79
2021/01/29 14:00:35;;;;;;;13.93;3.23;;;;;11.40;99166.00;;;;10431363;28;20282;-76
2021/01/29 14:05:36;;;;;;;16.00;3.10;;;;;10.60;99158.00;;;;10486301;28;20228;-78
2021/01/29 14:10:45;;;;;;;11.70;4.67;;;;;10.30;99169.00;;;;10472590;28;20259;-78
2021/01/29 14:15:59;;;;;;;17.20;5.67;;;;;10.10;99179.00;;;;10456806;28;20214;-78
2021/01/29 14:21:32;;;;;;;10.87;3.13;;;;;9.60;99188.00;;;;10447059;28;20650;-78
2021/01/29 14:26:44;;;;;;;15.07;3.03;;;;;9.40;99194.00;;;;10471903;28;20197;-78
2021/01/29 14:31:53;;;;;;;15.67;3.97;;;;;9.40;99190.00;;;;10465021;28;20217;-79
2021/01/29 14:37:02;;;;;;;11.53;3.23;;;;;9.40;99197.00;;;;10440188;28;20248;-79
2021/01/29 14:42:31;;;;;;;15.60;3.47;;;;;9.30;99197.00;;;;10482773;28;20668;-80
2021/01/29 14:48:02;;;;;;;25.83;3.63;;;;;9.30;99197.00;;;;10471269;28;20263;-80
2021/01/29 14:53:06;;;;;;;14.03;4.03;;;;;9.20;99203.00;;;;10460630;28;20214;-80
2021/01/29 14:58:09;;;;;;;10.33;3.37;;;;;9.20;99205.00;;;;10487972;28;20197;-79
2021/01/29 15:03:20;;;;;;;14.23;3.53;;;;;9.20;99206.00;;;;10471046;28;20263;-80
2021/01/29 15:08:31;;;;;;;8.53;2.57;;;;;9.20;99210.00;;;;10463499;28;20274;-79
2021/01/29 15:13:38;;;;;;;16.17;2.77;;;;;9.20;99214.00;;;;10462473;28;20880;-78
2021/01/29 15:18:40;;;;;;;15.30;3.40;;;;;9.10;99214.00;;;;10447509;28;20194;-80
2021/01/29 15:23:41;;;;;;;14.10;3.47;;;;;9.10;99218.00;;;;10486186;28;20204;-78
2021/01/29 15:28:49;;;;;;;13.43;3.50;;;;;9.00;99241.00;;;;10483144;28;20243;-81
2021/01/29 15:33:53;;;;;;;16.73;4.23;;;;;9.00;99238.00;;;;10427691;28;20249;-79
2021/01/29 15:38:58;;;;;;;17.10;4.63;;;;;9.10;99247.00;;;;10443897;28;20197;-79
2021/01/29 15:44:04;;;;;;;20.50;10.13;;;;;9.10;99253.00;;;;10428502;28;20272;-78
2021/01/29 15:49:18;;;;;;;16.67;5.07;;;;;9.10;99263.00;;;;10444478;28;20618;-78
2021/01/29 15:54:20;;;;;;;11.97;4.27;;;;;9.10;99265.00;;;;10470527;28;20339;-78
2021/01/29 15:59:22;;;;;;;14.37;4.83;;;;;9.00;99286.00;;;;10471994;28;20198;-79
2021/01/29 16:04:23;;;;;;;17.10;5.97;;;;;9.10;99276.00;;;;10425712;28;20201;-78
2021/01/29 16:09:29;;;;;;;12.63;4.37;;;;;9.00;99293.00;;;;10458906;28;20213;-79
2021/01/29 16:14:30;;;;;;;16.80;5.00;;;;;8.80;99317.00;;;;10484284;28;20210;-80
2021/01/29 16:19:31;;;;;;;15.93;5.07;;;;;8.80;99346.00;;;;10449664;28;20193;-80
2021/01/29 16:24:40;;;;;;;22.43;5.20;;;;;8.80;99358.00;;;;10454847;28;20193;-80
2021/01/29 16:29:43;;;;;;;20.70;6.13;;;;;8.80;99362.00;;;;10467449;28;20213;-79
2021/01/29 16:34:46;;;;;;;20.30;6.17;;;;;8.70;99369.00;;;;10439935;28;20209;-80
2021/01/29 16:39:53;;;;;;;24.67;6.70;;;;;8.70;99377.00;;;;10466175;28;20645;-80
2021/01/29 16:45:31;;;;;;;21.00;7.00;;;;;8.60;99379.00;;;;10500851;28;20235;-80
2021/01/29 16:50:43;;;;;;;25.80;6.97;;;;;8.50;99377.00;;;;10474566;28;20650;-80
2021/01/29 16:55:49;;;;;;;22.87;6.73;;;;;8.40;99374.00;;;;10411528;28;20210;-79
2021/01/29 17:01:02;;;;;;;23.37;6.27;;;;;8.40;99395.00;;;;10433915;28;20753;-79
2021/01/29 17:06:21;;;;;;;22.53;6.93;;;;;8.40;99412.00;;;;10468059;28;20225;-80
2021/01/29 17:11:26;;;;;;;28.17;6.77;;;;;8.40;99420.00;;;;10460024;28;20208;-79
2021/01/29 17:16:30;;;;;;;23.23;6.97;;;;;8.50;99437.00;;;;10466275;28;20229;-79
2021/01/29 17:21:36;;;;;;;28.67;6.30;;;;;8.50;99452.00;;;;10444894;28;20190;-79
2021/01/29 17:26:46;;;;;;;20.70;4.83;;;;;8.50;99459.00;;;;10451532;28;20296;-80
2021/01/29 17:31:48;;;;;;;16.27;4.10;;;;;8.50;99468.00;;;;10448302;28;20219;-80
2021/01/29 17:36:55;;;;;;;17.27;4.30;;;;;8.50;99468.00;;;;10465371;28;20663;-80
2021/01/29 17:42:19;;;;;;;19.60;4.50;;;;;8.50;99468.00;;;;10447831;28;20190;-80
2021/01/29 17:47:27;;;;;;;21.30;5.00;;;;;8.50;99468.00;;;;10483080;28;20193;-79
2021/01/29 17:52:31;;;;;;;21.27;5.03;;;;;8.40;99465.00;;;;10464596;28;20209;-79
2021/01/29 17:57:36;;;;;;;19.33;5.07;;;;;8.30;99471.00;;;;10448652;28;20232;-80
2021/01/29 18:02:38;;;;;;;17.93;5.40;;;;;8.10;99476.00;;;;10460973;28;20731;-80
2021/01/29 18:08:09;;;;;;;19.23;4.33;;;;;7.90;99496.00;;;;10452372;28;20193;-80
2021/01/29 18:13:17;;;;;;;21.17;6.00;;;;;7.90;99514.00;;;;10512097;28;20235;-79
2021/01/29 18:18:25;;;;;;;21.10;5.33;;;;;8.00;99491.00;;;;10488066;28;20181;-79
2021/01/29 18:23:32;;;;;;;16.90;4.63;;;;;7.90;99506.00;;;;10482964;28;20253;-80
2021/01/29 18:28:35;;;;;;;20.33;5.83;;;;;7.80;99524.00;;;;10475665;28;20209;-81
2021/01/29 18:33:39;;;;;;;23.20;5.27;;;;;7.90;99529.00;;;;10464786;28;20209;-81
2021/01/29 18:38:41;;;;;;;21.13;5.03;;;;;8.00;99544.00;;;;10455108;28;20224;-80
2021/01/29 18:43:44;;;;;;;17.87;5.53;;;;;8.00;99545.00;;;;10448740;28;20213;-80
2021/01/29 18:48:46;;;;;;;22.33;5.00;;;;;8.10;99556.00;;;;10441079;28;20297;-80
2021/01/29 18:53:47;;;;;;;19.43;4.47;;;;;8.10;99566.00;;;;10481680;28;20209;-80
2021/01/29 18:58:49;;;;;;;14.80;5.70;;;;;8.10;99560.00;;;;10451963;28;20280;-80
2021/01/29 19:03:54;;;;;;;14.83;5.20;;;;;8.10;99567.00;;;;10468223;28;20212;-79
2021/01/29 19:08:56;;;;;;;17.50;7.03;;;;;8.10;99588.00;;;;10495869;28;20509;-80
2021/01/29 19:13:59;;;;;;;16.77;6.07;;;;;8.20;99604.00;;;;10492180;28;20229;-80
2021/01/29 19:19:02;;;;;;;26.27;15.60;;;;;8.20;99612.00;;;;10438835;28;20205;-79
2021/01/29 19:24:04;;;;;;;20.00;5.13;;;;;8.20;99626.00;;;;10477251;28;20198;-79
2021/01/29 19:29:06;;;;;;;12.40;5.00;;;;;8.20;99637.00;;;;10479313;28;20243;-80
2021/01/29 19:34:07;;;;;;;20.00;6.10;;;;;8.20;99639.00;;;;10469719;28;20209;-80
2021/01/29 19:39:12;;;;;;;13.77;4.50;;;;;8.30;99634.00;;;;10468611;28;20213;-79
2021/01/29 19:44:14;;;;;;;11.03;4.00;;;;;8.30;99631.00;;;;10469582;28;20205;-79
2021/01/29 19:49:16;;;;;;;16.83;4.80;;;;;8.20;99633.00;;;;10452747;28;20181;-79
2021/01/29 19:54:17;;;;;;;13.27;5.30;;;;;8.20;99652.00;;;;10493923;28;20707;-78
2021/01/29 19:59:19;;;;;;;15.17;5.20;;;;;8.30;99653.00;;;;10489956;28;20634;-78
2021/01/29 20:04:20;;;;;;;17.33;5.93;;;;;8.30;99658.00;;;;10453946;28;20181;-79
2021/01/29 20:09:22;;;;;;;17.10;5.87;;;;;8.30;99650.00;;;;10465202;28;20304;-78
2021/01/29 20:14:24;;;;;;;15.57;6.40;;;;;8.30;99653.00;;;;10484636;28;20205;-81
2021/01/29 20:19:25;;;;;;;19.03;9.90;;;;;8.30;99661.00;;;;10471990;28;20190;-82
2021/01/29 20:24:26;;;;;;;21.60;8.90;;;;;8.30;99666.00;;;;10509892;28;20189;-80
2021/01/29 20:29:28;;;;;;;12.87;6.93;;;;;8.30;99651.00;;;;10498253;28;20830;-80
2021/01/29 20:34:30;;;;;;;15.83;7.00;;;;;8.30;99648.00;;;;10435165;28;20297;-80
2021/01/29 20:39:33;;;;;;;13.20;5.33;;;;;8.30;99652.00;;;;10483824;28;20200;-80
2021/01/29 20:44:34;;;;;;;12.93;6.23;;;;;8.40;99678.00;;;;10463553;28;20522;-81
2021/01/29 20:49:36;;;;;;;11.70;4.87;;;;;8.40;99662.00;;;;10473829;28;20239;-81
2021/01/29 20:54:38;;;;;;;9.20;4.17;;;;;8.40;99667.00;;;;10480495;28;20202;-81
2021/01/29 20:59:40;;;;;;;8.73;3.57;;;;;8.40;99652.00;;;;10484962;28;20232;-81
2021/01/29 21:04:42;;;;;;;11.00;4.00;;;;;8.40;99661.00;;;;10451212;28;20591;-80
2021/01/29 21:09:43;;;;;;;11.80;4.00;;;;;8.50;99668.00;;;;10490976;28;20197;-80
2021/01/29 21:14:45;;;;;;;10.50;3.73;;;;;8.40;99652.00;;;;10508534;28;20221;-80
2021/01/29 21:19:46;;;;;;;7.53;3.37;;;;;8.40;99640.00;;;;10494567;28;20193;-80
2021/01/29 21:24:56;;;;;;;13.03;3.77;;;;;8.30;99656.00;;;;10435944;28;20186;-80
2021/01/29 21:29:57;;;;;;;12.93;5.20;;;;;8.10;99651.00;;;;10471408;28;20199;-81
2021/01/29 21:35:10;;;;;;;17.20;6.07;;;;;8.10;99662.00;;;;10483244;28;20198;-81
2021/01/29 21:40:13;;;;;;;16.43;7.03;;;;;8.20;99660.00;;;;10494278;28;20202;-81
2021/01/29 21:45:15;;;;;;;23.20;6.57;;;;;8.20;99659.00;;;;10483529;28;20294;-81
2021/01/29 21:50:18;;;;;;;12.73;5.50;;;;;8.30;99658.00;;;;10479660;28;20247;-80
2021/01/29 21:55:21;;;;;;;10.57;7.13;;;;;8.30;99668.00;;;;10442094;28;20263;-81
2021/01/29 22:00:23;;;;;;;7.73;4.23;;;;;8.40;99662.00;;;;10495396;28;20685;-79
2021/01/29 22:05:26;;;;;;;9.03;3.83;;;;;8.40;99657.00;;;;10456435;28;20193;-82
2021/01/29 22:10:28;;;;;;;5.60;3.27;;;;;8.40;99658.00;;;;10473484;28;20201;-81
2021/01/29 22:15:31;;;;;;;7.70;2.70;;;;;8.30;99656.00;;;;10474718;28;20202;-82
2021/01/29 22:20:34;;;;;;;4.07;2.40;;;;;8.30;99658.00;;;;10483207;28;20217;-81
2021/01/29 22:25:36;;;;;;;8.53;4.17;;;;;8.20;99670.00;;;;10454906;28;20217;-82
2021/01/29 22:30:37;;;;;;;14.20;4.60;;;;;8.20;99678.00;;;;10472530;28;20209;-82
2021/01/29 22:35:39;;;;;;;11.23;4.37;;;;;8.30;99680.00;;;;10470565;28;20301;-82
2021/01/29 22:40:40;;;;;;;13.13;4.30;;;;;8.30;99674.00;;;;10446019;28;20237;-81
2021/01/29 22:45:42;;;;;;;9.10;4.23;;;;;8.30;99677.00;;;;10489257;28;20221;-82
2021/01/29 22:50:44;;;;;;;11.30;4.90;;;;;8.30;99673.00;;;;10490287;28;20211;-81
2021/01/29 22:55:45;;;;;;;7.90;4.67;;;;;8.30;99677.00;;;;10490547;28;20645;-82
2021/01/29 23:00:47;;;;;;;12.67;4.93;;;;;8.30;99673.00;;;;10497351;28;20190;-81
2021/01/29 23:05:49;;;;;;;11.27;4.67;;;;;8.30;99673.00;;;;10484679;28;20632;-81
2021/01/29 23:10:50;;;;;;;13.23;5.03;;;;;8.20;99670.00;;;;10492971;28;20246;-81
2021/01/29 23:15:52;;;;;;;15.60;5.10;;;;;8.20;99664.00;;;;10479445;28;20196;-83
2021/01/29 23:20:54;;;;;;;11.77;4.27;;;;;8.30;99672.00;;;;10531175;28;20563;-83
2021/01/29 23:25:56;;;;;;;15.73;4.97;;;;;8.30;99678.00;;;;10466101;28;20252;-83
2021/01/29 23:30:59;;;;;;;16.53;5.03;;;;;8.10;99658.00;;;;10478467;28;20201;-82
2021/01/29 23:36:03;;;;;;;14.00;5.10;;;;;8.00;99655.00;;;;10465925;28;20577;-81
2021/01/29 23:41:05;;;;;;;15.00;4.93;;;;;7.80;99656.00;;;;10494267;28;20201;-82
2021/01/29 23:46:06;;;;;;;13.87;4.40;;;;;7.80;99667.00;;;;10491100;28;20212;-83
2021/01/29 23:51:15;;;;;;;20.80;5.20;;;;;7.90;99667.00;;;;10471992;28;20556;-82
2021/01/29 23:56:17;;;;;;;18.27;5.07;;;;;7.90;99666.00;;;;10468843;28;20257;-83
